Time;durP1;ratioP1;P1;durP2;ratioP2;P2;SDS_P1;SDS_P2;PMS_P1;PMS_P2;Temp;Humidity;BMP_temperature;BMP_pressure;BME280_temperature;BME280_humidity;BME280_pressure;Samples;Min_cycle;Max_cycle;Signal;HPM_P1;HPM_P2
2022/10/06 00:00:38;;;;;;;;;;;;;;;20.14;62.79;101091.92;2308044;77;50775;-77
2022/10/06 00:03:40;;;;;;;;;;;;;;;20.14;62.81;101093.27;2375443;74;51929;-77
2022/10/06 00:06:41;;;;;;;;;;;;;;;20.14;62.75;101095.09;2348814;75;50695;-77
2022/10/06 00:09:43;;;;;;;;;;;;;;;20.12;62.79;101096.64;2348600;74;52739;-77
2022/10/06 00:12:45;;;;;;;;;;;;;;;20.14;62.75;101098.64;2379234;75;51510;-78
2022/10/06 00:15:47;;;;;;;;;;;;;;;20.16;62.72;101103.81;2348398;75;50070;-77
2022/10/06 00:18:48;;;;;;;;;;;;;;;20.16;62.70;101103.30;2373252;74;50568;-78
2022/10/06 00:21:51;;;;;;;;;;;;;;;20.14;62.64;101104.02;2384455;74;50327;-78
2022/10/06 00:24:52;;;;;;;;;;;;;;;20.14;62.68;101113.41;2352643;74;51483;-78
2022/10/06 00:27:54;;;;;;;;;;;;;;;20.13;62.80;101118.95;2352386;74;52308;-78
2022/10/06 00:30:56;;;;;;;;;;;;;;;20.14;62.76;101121.48;2385884;74;51421;-78
2022/10/06 00:33:57;;;;;;;;;;;;;;;20.14;62.73;101120.61;2385645;74;50730;-78
2022/10/06 00:36:59;;;;;;;;;;;;;;;20.13;62.76;101127.84;2385880;74;50320;-77
2022/10/06 00:40:00;;;;;;;;;;;;;;;20.13;62.76;101126.50;2352529;74;51199;-78
2022/10/06 00:43:03;;;;;;;;;;;;;;;20.13;62.78;101116.27;2352731;74;50583;-78
2022/10/06 00:46:05;;;;;;;;;;;;;;;20.14;62.78;101132.70;2363489;74;52383;-78
2022/10/06 00:49:11;;;;;;;;;;;;;;;20.13;62.73;101130.53;2350780;74;51466;-79
2022/10/06 00:52:14;;;;;;;;;;;;;;;20.13;62.76;101134.56;2313923;76;50065;-78
2022/10/06 00:55:19;;;;;;;;;;;;;;;20.13;62.81;101143.14;2344010;76;50397;-78
2022/10/06 00:58:20;;;;;;;;;;;;;;;20.14;62.68;101130.02;2345672;76;22444;-78
2022/10/06 01:01:21;;;;;;;;;;;;;;;20.12;62.84;101139.63;2341931;75;51588;-78
2022/10/06 01:04:23;;;;;;;;;;;;;;;20.12;62.74;101138.28;2275679;77;51061;-78
2022/10/06 01:07:26;;;;;;;;;;;;;;;20.13;62.70;101145.83;2289310;77;51520;-79
2022/10/06 01:10:27;;;;;;;;;;;;;;;20.14;62.66;101150.17;2290141;77;50180;-78
2022/10/06 01:13:29;;;;;;;;;;;;;;;20.11;62.68;101143.30;2290247;77;50214;-79
2022/10/06 01:16:30;;;;;;;;;;;;;;;20.15;62.62;101151.34;2281203;75;49467;-78
2022/10/06 01:19:34;;;;;;;;;;;;;;;20.13;62.68;101150.69;2332266;75;50020;-78
2022/10/06 01:22:36;;;;;;;;;;;;;;;20.12;62.84;101167.83;2307941;77;51508;-78
2022/10/06 01:25:38;;;;;;;;;;;;;;;20.13;62.81;101143.97;2307581;77;50745;-78
2022/10/06 01:28:40;;;;;;;;;;;;;;;20.11;62.83;101150.02;2283211;77;50888;-79
2022/10/06 01:31:41;;;;;;;;;;;;;;;20.11;62.84;101149.19;2282048;77;51341;-79
2022/10/06 01:34:43;;;;;;;;;;;;;;;20.09;62.89;101156.11;2307292;77;52267;-78
2022/10/06 01:37:44;;;;;;;;;;;;;;;20.09;62.95;101164.17;2307553;77;50616;-78
2022/10/06 01:40:46;;;;;;;;;;;;;;;20.10;62.89;101160.97;2257006;77;51814;-78
2022/10/06 01:43:48;;;;;;;;;;;;;;;20.09;62.97;101171.37;2281812;77;51522;-78
2022/10/06 01:46:49;;;;;;;;;;;;;;;20.08;63.01;101173.73;2282239;77;51456;-78
2022/10/06 01:49:51;;;;;;;;;;;;;;;20.09;62.95;101169.55;2317665;75;50653;-78
2022/10/06 01:52:54;;;;;;;;;;;;;;;20.08;63.06;101170.54;2306504;75;51267;-79
2022/10/06 01:55:58;;;;;;;;;;;;;;;20.09;62.93;101169.55;2333051;75;22333;-78
2022/10/06 01:58:59;;;;;;;;;;;;;;;20.10;62.87;101171.20;2358313;75;50648;-78
2022/10/06 02:02:01;;;;;;;;;;;;;;;20.11;62.86;101174.20;2361137;75;50305;-78
2022/10/06 02:05:03;;;;;;;;;;;;;;;20.10;62.88;101165.83;2337517;75;51184;-78
2022/10/06 02:08:05;;;;;;;;;;;;;;;20.09;62.88;101165.52;2312276;75;51852;-78
2022/10/06 02:11:08;;;;;;;;;;;;;;;20.10;62.83;101166.34;2338969;75;50519;-79
2022/10/06 02:14:11;;;;;;;;;;;;;;;20.11;62.81;101167.48;2374412;75;51499;-78
2022/10/06 02:17:13;;;;;;;;;;;;;;;20.12;62.76;101170.52;2313138;75;50188;-79
2022/10/06 02:20:14;;;;;;;;;;;;;;;20.13;62.72;101174.03;2358248;75;50318;-78
2022/10/06 02:23:16;;;;;;;;;;;;;;;20.09;62.78;101172.23;2335135;76;50375;-79
2022/10/06 02:26:18;;;;;;;;;;;;;;;20.11;62.72;101183.61;2335458;76;50062;-79
2022/10/06 02:29:19;;;;;;;;;;;;;;;20.09;62.80;101177.60;2311791;76;50912;-78
2022/10/06 02:32:21;;;;;;;;;;;;;;;20.08;62.87;101188.00;2334111;76;50245;-78
2022/10/06 02:35:22;;;;;;;;;;;;;;;20.07;62.89;101191.72;2334171;76;50309;-78
2022/10/06 02:38:24;;;;;;;;;;;;;;;20.09;62.83;101191.52;2312113;76;50402;-79
2022/10/06 02:41:25;;;;;;;;;;;;;;;20.08;62.82;101194.72;2322987;75;51760;-78
2022/10/06 02:44:27;;;;;;;;;;;;;;;20.09;62.79;101199.09;2312202;76;51550;-78
2022/10/06 02:47:31;;;;;;;;;;;;;;;20.08;62.77;101198.75;2353805;75;50666;-79
2022/10/06 02:50:33;;;;;;;;;;;;;;;20.08;62.81;101200.09;2361824;75;22303;-78
2022/10/06 02:53:35;;;;;;;;;;;;;;;20.08;62.82;101208.15;2339526;75;50976;-78
2022/10/06 02:56:37;;;;;;;;;;;;;;;20.09;62.70;101208.50;2339472;75;50736;-79
2022/10/06 02:59:38;;;;;;;;;;;;;;;20.09;62.77;101209.84;2374884;74;50594;-79
2022/10/06 03:02:40;;;;;;;;;;;;;;;20.09;62.74;101217.04;2373887;75;51483;-79
2022/10/06 03:05:41;;;;;;;;;;;;;;;20.08;62.77;101214.87;2335506;75;51108;-79
2022/10/06 03:08:43;;;;;;;;;;;;;;;20.07;62.80;101212.38;2336055;75;51579;-79
2022/10/06 03:11:45;;;;;;;;;;;;;;;20.06;62.79;101226.29;2368334;75;50816;-79
2022/10/06 03:14:46;;;;;;;;;;;;;;;20.09;62.74;101225.09;2368013;75;50681;-79
2022/10/06 03:17:49;;;;;;;;;;;;;;;20.09;62.71;101229.13;2303624;76;50996;-78
2022/10/06 03:20:52;;;;;;;;;;;;;;;20.10;62.67;101232.16;2279402;76;50147;-78
2022/10/06 03:23:55;;;;;;;;;;;;;;;20.08;62.75;101232.84;2267565;77;22420;-78
2022/10/06 03:26:57;;;;;;;;;;;;;;;20.07;62.80;101248.13;2303168;77;51536;-78
2022/10/06 03:29:58;;;;;;;;;;;;;;;20.08;62.74;101249.79;2267875;77;52625;-79
2022/10/06 03:33:00;;;;;;;;;;;;;;;20.08;62.78;101257.84;2303560;77;50697;-79
2022/10/06 03:36:02;;;;;;;;;;;;;;;20.07;62.79;101264.77;2266794;77;51373;-78
2022/10/06 03:39:04;;;;;;;;;;;;;;;20.09;62.78;101273.45;2267128;77;52193;-79
2022/10/06 03:42:06;;;;;;;;;;;;;;;20.06;62.81;101280.02;2268149;77;51257;-79
2022/10/06 03:45:08;;;;;;;;;;;;;;;20.09;62.74;101302.53;2266903;77;50737;-78
2022/10/06 03:48:09;;;;;;;;;;;;;;;20.09;62.72;101305.22;2336970;74;50466;-79
2022/10/06 03:51:12;;;;;;;;;;;;;;;20.08;62.73;101314.78;2362118;75;50411;-78
2022/10/06 03:54:13;;;;;;;;;;;;;;;20.06;62.78;101323.00;2334926;75;50125;-77
2022/10/06 03:57:15;;;;;;;;;;;;;;;20.07;62.79;101342.67;2367979;75;50207;-78
2022/10/06 04:00:17;;;;;;;;;;;;;;;20.08;62.77;101342.48;2335694;75;50667;-78
2022/10/06 04:03:21;;;;;;;;;;;;;;;20.12;62.80;101337.09;2338580;75;50336;-77
2022/10/06 04:06:23;;;;;;;;;;;;;;;20.14;62.79;101344.48;2345433;75;52495;-77
2022/10/06 04:09:24;;;;;;;;;;;;;;;20.18;62.71;101353.84;2345701;75;51430;-77
2022/10/06 04:12:26;;;;;;;;;;;;;;;20.18;62.72;101365.11;2378911;75;51560;-77
2022/10/06 04:15:27;;;;;;;;;;;;;;;20.19;62.67;101374.83;2345328;75;51475;-77
2022/10/06 04:18:29;;;;;;;;;;;;;;;20.19;62.66;101374.34;2312329;76;51533;-77
2022/10/06 04:21:31;;;;;;;;;;;;;;;20.20;62.60;101384.58;2316965;76;50314;-77
2022/10/06 04:24:33;;;;;;;;;;;;;;;20.21;62.58;101388.41;2319352;76;51250;-77
2022/10/06 04:27:34;;;;;;;;;;;;;;;20.16;62.87;101397.51;2288246;76;51556;-77
2022/10/06 04:30:36;;;;;;;;;;;;;;;20.12;63.02;101383.28;2263260;76;51276;-77
2022/10/06 04:33:38;;;;;;;;;;;;;;;20.10;63.23;101395.53;2323781;76;50287;-77
2022/10/06 04:36:40;;;;;;;;;;;;;;;20.11;63.12;101408.45;2329524;76;50317;-77
2022/10/06 04:39:41;;;;;;;;;;;;;;;20.11;63.32;101413.31;2329698;76;50736;-77
2022/10/06 04:42:44;;;;;;;;;;;;;;;20.14;63.14;101404.94;2252373;76;52632;-76
2022/10/06 04:45:46;;;;;;;;;;;;;;;20.20;62.88;101413.63;2332603;76;50335;-75
2022/10/06 04:48:49;;;;;;;;;;;;;;;20.15;63.23;101411.14;2344300;75;50702;-77
2022/10/06 04:51:50;;;;;;;;;;;;;;;20.13;63.25;101419.36;2334539;75;51520;-76
2022/10/06 04:54:52;;;;;;;;;;;;;;;20.12;63.55;101436.51;2254001;77;50042;-76
2022/10/06 04:57:54;;;;;;;;;;;;;;;20.14;63.46;101434.48;2303608;76;51462;-77
2022/10/06 05:00:55;;;;;;;;;;;;;;;;;;2267267;77;51499;-77
2022/10/06 05:03:56;;;;;;;;;;;;;;;;;;2317431;76;50737;-74
2022/10/06 05:06:57;;;;;;;;;;;;;;;20.14;63.81;101441.20;2346635;74;50400;-74
2022/10/06 05:09:59;;;;;;;;;;;;;;;20.14;63.42;101452.44;2342041;74;51133;-74
2022/10/06 05:13:02;;;;;;;;;;;;;;;20.13;63.26;101459.66;2380274;74;50627;-76
2022/10/06 05:16:05;;;;;;;;;;;;;;;20.10;63.62;101466.73;2380205;74;50727;-77
2022/10/06 05:19:07;;;;;;;;;;;;;;;20.12;64.00;101477.32;2336730;76;50418;-76
2022/10/06 05:22:08;;;;;;;;;;;;;;;20.10;64.75;101490.91;2314072;76;51097;-78
2022/10/06 05:25:10;;;;;;;;;;;;;;;20.10;64.76;101497.63;2347910;76;51222;-77
2022/10/06 05:28:11;;;;;;;;;;;;;;;20.10;64.28;101504.34;2345041;76;50280;-77
2022/10/06 05:31:14;;;;;;;;;;;;;;;20.12;64.30;101506.88;2312798;76;50319;-76
2022/10/06 05:34:16;;;;;;;;;;;;;;;20.12;64.13;101511.73;2314773;76;51035;-79
2022/10/06 05:37:17;;;;;;;;;;;;;;;20.11;64.42;101519.95;2317331;76;51450;-78
2022/10/06 05:40:19;;;;;;;;;;;;;;;20.12;64.61;101530.55;2347167;76;50707;-77
2022/10/06 05:43:20;;;;;;;;;;;;;;;20.11;64.87;101543.62;2344843;76;51430;-77
2022/10/06 05:46:23;;;;;;;;;;;;;;;20.16;64.52;101543.13;2287366;76;50052;-79
2022/10/06 05:49:25;;;;;;;;;;;;;;;20.16;64.48;101552.02;2348921;74;51625;-77
2022/10/06 05:52:27;;;;;;;;;;;;;;;20.18;65.48;101566.64;2321081;75;50046;-77
2022/10/06 05:55:30;;;;;;;;;;;;;;;20.20;65.37;101575.38;2360595;75;51504;-77
2022/10/06 05:58:32;;;;;;;;;;;;;;;20.20;65.16;101576.20;2332454;75;49411;-77
2022/10/06 06:01:35;;;;;;;;;;;;;;;20.20;65.16;101590.98;2360978;75;51489;-77
2022/10/06 06:04:36;;;;;;;;;;;;;;;20.21;64.98;101602.05;2360871;75;51469;-77
2022/10/06 06:07:38;;;;;;;;;;;;;;;20.22;65.07;101609.13;2356217;75;50597;-77
2022/10/06 06:10:39;;;;;;;;;;;;;;;20.22;64.75;101624.42;2331078;75;52557;-76
2022/10/06 06:13:41;;;;;;;;;;;;;;;20.19;64.76;101624.73;2337156;75;51471;-77
2022/10/06 06:16:42;;;;;;;;;;;;;;;20.18;64.61;101642.71;2337187;74;50210;-78
2022/10/06 06:19:44;;;;;;;;;;;;;;;20.19;64.51;101655.16;2348493;75;51546;-77
2022/10/06 06:22:47;;;;;;;;;;;;;;;20.20;64.37;101660.86;2311806;76;50095;-77
2022/10/06 06:26:02;;;;;;;;;;;;;;;20.25;64.19;101674.30;2295586;76;49613;-77
2022/10/06 06:29:05;;;;;;;;;;;;;;;20.31;64.12;101677.64;2333847;76;50357;-77
2022/10/06 06:32:08;;;;;;;;;;;;;;;20.39;64.13;101677.63;2311971;76;50623;-78
2022/10/06 06:35:10;;;;;;;;;;;;;;;20.39;64.11;101699.97;2271679;76;51046;-80
2022/10/06 06:38:12;;;;;;;;;;;;;;;20.44;63.96;101698.13;2311998;76;50263;-78
2022/10/06 06:41:14;;;;;;;;;;;;;;;20.47;63.83;101700.97;2333866;76;50684;-78
2022/10/06 06:44:16;;;;;;;;;;;;;;;20.48;63.73;101703.50;2333780;76;50721;-77
2022/10/06 06:47:18;;;;;;;;;;;;;;;20.51;63.65;101713.08;2277157;75;51004;-78
2022/10/06 06:50:19;;;;;;;;;;;;;;;20.51;63.58;101721.98;2321867;75;51411;-78
2022/10/06 06:53:21;;;;;;;;;;;;;;;20.53;63.47;101729.38;2337734;75;51394;-78
2022/10/06 06:56:22;;;;;;;;;;;;;;;20.53;63.45;101741.48;2337916;75;50120;-77
2022/10/06 06:59:24;;;;;;;;;;;;;;;20.55;63.38;101752.08;2338050;75;50350;-78
2022/10/06 07:02:28;;;;;;;;;;;;;;;20.50;63.32;101757.95;2338082;75;50684;-78
2022/10/06 07:05:29;;;;;;;;;;;;;;;20.52;63.15;101768.52;2303115;76;23151;-78
2022/10/06 07:08:31;;;;;;;;;;;;;;;20.54;63.19;101775.44;2334210;76;51511;-78
2022/10/06 07:11:33;;;;;;;;;;;;;;;20.55;63.17;101782.52;2298369;76;50235;-78
2022/10/06 07:14:35;;;;;;;;;;;;;;;20.56;63.14;101788.73;2333834;76;50760;-77
2022/10/06 07:27:42;;;;;;;;;;;;;;;20.60;62.84;101813.78;2335289;76;21722;-77
2022/10/06 07:30:43;;;;;;;;;;;;;;;20.58;62.75;101809.07;2334004;76;50473;-77
2022/10/06 07:33:45;;;;;;;;;;;;;;;20.59;62.76;101825.53;2312039;76;50618;-78
2022/10/06 07:36:52;;;;;;;;;;;;;;;20.60;62.69;101829.91;2293730;75;49504;-78
2022/10/06 07:39:50;;;;;;;;;;;;;;;20.58;62.64;101842.68;2323921;75;22294;-79
2022/10/06 07:42:51;;;;;;;;;;;;;;;20.57;62.56;101842.33;2323756;75;51534;-78
2022/10/06 07:45:53;;;;;;;;;;;;;;;20.58;62.94;101838.65;2356061;75;50736;-77
2022/10/06 07:48:54;;;;;;;;;;;;;;;20.58;62.69;101844.53;2343769;75;50975;-77
2022/10/06 07:51:57;;;;;;;;;;;;;;;20.58;62.57;101840.50;2323755;75;50652;-77
2022/10/06 07:54:58;;;;;;;;;;;;;;;20.57;63.08;101855.77;2331709;75;51424;-79
2022/10/06 07:58:00;;;;;;;;;;;;;;;20.55;63.12;101864.53;2372289;75;51465;-80
2022/10/06 08:01:05;;;;;;;;;;;;;;;20.54;62.87;101865.52;2302242;75;50001;-80
2022/10/06 08:04:07;;;;;;;;;;;;;;;20.54;62.83;101863.31;2339810;75;51466;-82
2022/10/06 08:07:11;;;;;;;;;;;;;;;20.53;62.80;101869.70;2361115;75;50615;-80
2022/10/06 08:10:12;;;;;;;;;;;;;;;20.53;62.71;101877.77;2338509;75;22411;-79
2022/10/06 08:13:19;;;;;;;;;;;;;;;20.47;62.73;101895.38;2272639;77;49971;-80
2022/10/06 08:16:21;;;;;;;;;;;;;;;20.45;62.79;101890.70;2314119;77;51614;-79
2022/10/06 08:19:22;;;;;;;;;;;;;;;20.48;62.65;101904.31;2307306;76;50271;-79
2022/10/06 08:22:29;;;;;;;;;;;;;;;20.45;62.73;101910.86;2286653;76;49946;-79
2022/10/06 08:25:27;;;;;;;;;;;;;;;20.48;62.61;101912.38;2307161;77;22354;-79
2022/10/06 08:28:29;;;;;;;;;;;;;;;20.44;62.69;101926.13;2335861;75;51477;-79
2022/10/06 08:31:31;;;;;;;;;;;;;;;20.47;62.61;101927.65;2370765;75;50594;-79
2022/10/06 08:34:32;;;;;;;;;;;;;;;20.44;62.61;101928.81;2371547;75;50568;-79
2022/10/06 08:37:34;;;;;;;;;;;;;;;20.43;62.66;101937.06;2335965;75;51438;-80
2022/10/06 08:40:35;;;;;;;;;;;;;;;20.41;62.69;101931.00;2336482;75;50945;-79
2022/10/06 08:43:37;;;;;;;;;;;;;;;20.41;62.68;101950.66;2370778;75;51487;-80
2022/10/06 08:46:40;;;;;;;;;;;;;;;20.40;62.66;101944.12;2349178;75;50564;-79
2022/10/06 08:49:46;;;;;;;;;;;;;;;20.38;62.74;101955.02;2338840;75;50742;-80
2022/10/06 08:52:52;;;;;;;;;;;;;;;20.40;62.82;101961.09;2306990;76;52061;-79
2022/10/06 08:55:55;;;;;;;;;;;;;;;20.41;62.73;101967.30;2344767;76;51430;-78
2022/10/06 08:58:57;;;;;;;;;;;;;;;20.38;62.74;101959.56;2344476;75;51428;-79
2022/10/06 09:01:58;;;;;;;;;;;;;;;20.38;62.74;101974.35;2344999;76;50734;-79
2022/10/06 09:05:02;;;;;;;;;;;;;;;20.37;62.65;101973.99;2308828;75;52558;-79
2022/10/06 09:08:09;;;;;;;;;;;;;;;20.34;62.68;101980.53;2357493;75;49873;-79
2022/10/06 09:11:22;;;;;;;;;;;;;;;20.38;62.58;101985.11;2347311;75;51218;-79
2022/10/06 09:14:32;;;;;;;;;;;;;;;20.43;62.52;101985.45;2368955;74;50610;-78
2022/10/06 09:17:34;;;;;;;;;;;;;;;20.43;62.46;101993.53;2350778;74;50042;-79
2022/10/06 09:20:54;;;;;;;;;;;;;;;20.40;62.48;101987.14;2372332;74;51542;-79
2022/10/06 09:23:58;;;;;;;;;;;;;;;20.36;62.70;101999.20;2329153;76;51647;-79
2022/10/06 09:26:59;;;;;;;;;;;;;;;20.35;62.74;102005.59;2357006;75;50601;-78
2022/10/06 09:30:03;;;;;;;;;;;;;;;20.34;62.84;101998.52;2339400;75;49991;-78
2022/10/06 09:33:04;;;;;;;;;;;;;;;20.31;62.89;101998.84;2339198;75;22299;-77
2022/10/06 09:36:13;;;;;;;;;;;;;;;20.30;62.93;102006.08;2371718;75;50665;-78
2022/10/06 09:39:10;;;;;;;;;;;;;;;20.33;62.87;102012.97;2370587;75;22182;-78
2022/10/06 09:42:14;;;;;;;;;;;;;;;20.30;62.98;102018.68;2337952;75;50697;-78
2022/10/06 09:45:17;;;;;;;;;;;;;;;20.30;62.91;102023.55;2367899;75;52092;-77
2022/10/06 09:48:23;;;;;;;;;;;;;;;20.27;62.93;102018.50;2371647;75;51550;-78
2022/10/06 09:51:23;;;;;;;;;;;;;;;20.31;62.78;102024.38;2355797;74;23340;-78
2022/10/06 09:54:25;;;;;;;;;;;;;;;20.31;62.77;102029.25;2329094;75;51277;-78
2022/10/06 09:57:27;;;;;;;;;;;;;;;20.32;62.72;102032.77;2324964;75;52408;-79
2022/10/06 10:00:33;;;;;;;;;;;;;;;20.30;62.73;102032.12;2357568;75;50295;-79
2022/10/06 10:03:50;;;;;;;;;;;;;;;20.33;62.57;102029.11;2357061;75;50361;-79
2022/10/06 10:06:52;;;;;;;;;;;;;;;20.34;62.54;102034.30;2326414;75;50116;-79
2022/10/06 10:09:54;;;;;;;;;;;;;;;20.30;62.52;102038.84;2327971;75;50257;-78
2022/10/06 10:12:56;;;;;;;;;;;;;;;20.32;62.53;102040.84;2360060;75;51482;-78
2022/10/06 10:15:59;;;;;;;;;;;;;;;20.31;62.42;102040.00;2359887;75;51528;-78
2022/10/06 10:19:01;;;;;;;;;;;;;;;20.31;62.48;102045.89;2304434;76;50087;-79
2022/10/06 10:22:03;;;;;;;;;;;;;;;20.30;62.41;102055.80;2333634;76;50640;-78
2022/10/06 10:25:09;;;;;;;;;;;;;;;20.30;62.35;102051.77;2333374;76;51520;-79
2022/10/06 10:28:19;;;;;;;;;;;;;;;20.30;62.43;102053.63;2333654;75;50233;-78
2022/10/06 10:31:20;;;;;;;;;;;;;;;20.26;62.46;102053.08;2333538;76;21797;-78
2022/10/06 10:34:41;;;;;;;;;;;;;;;20.26;62.42;102054.93;2333531;76;50674;-78
2022/10/06 10:37:44;;;;;;;;;;;;;;;20.30;62.33;102057.15;2333967;76;50649;-78
2022/10/06 10:40:54;;;;;;;;;;;;;;;20.34;62.18;102059.00;2334101;76;50652;-78
2022/10/06 10:43:56;;;;;;;;;;;;;;;20.35;62.10;102060.70;2300353;76;52500;-79
2022/10/06 10:47:00;;;;;;;;;;;;;;;20.33;62.17;102053.30;2339822;75;51652;-78
2022/10/06 10:50:06;;;;;;;;;;;;;;;20.35;62.10;102064.73;2349756;74;51568;-78
2022/10/06 10:53:12;;;;;;;;;;;;;;;20.32;62.19;102079.81;2383104;74;51366;-78
2022/10/06 10:56:15;;;;;;;;;;;;;;;20.33;62.12;102081.52;2351754;74;51520;-78
2022/10/06 10:59:17;;;;;;;;;;;;;;;20.34;62.12;102076.47;2384602;74;50521;-78
2022/10/06 11:02:19;;;;;;;;;;;;;;;20.34;62.02;102075.97;2383045;74;51668;-78
2022/10/06 11:05:35;;;;;;;;;;;;;;;20.33;62.00;102084.21;2350464;74;50351;-78
2022/10/06 11:08:41;;;;;;;;;;;;;;;20.36;61.92;102079.34;2250865;78;52894;-78
2022/10/06 11:11:45;;;;;;;;;;;;;;;20.30;62.03;102085.38;2281525;78;50568;-78
2022/10/06 11:14:48;;;;;;;;;;;;;;;20.35;61.89;102080.87;2280685;78;50626;-78
2022/10/06 11:17:49;;;;;;;;;;;;;;;20.37;61.88;102078.84;2244777;78;51708;-78
2022/10/06 11:20:52;;;;;;;;;;;;;;;20.35;61.90;102083.55;2260597;77;50988;-78
2022/10/06 11:23:57;;;;;;;;;;;;;;;20.33;61.96;102080.17;2266615;78;50730;-78
2022/10/06 11:27:00;;;;;;;;;;;;;;;20.29;62.06;102083.66;2268835;78;51585;-78
2022/10/06 11:30:13;;;;;;;;;;;;;;;20.32;61.97;102084.72;2265889;78;51132;-78
2022/10/06 11:33:17;;;;;;;;;;;;;;;20.32;61.93;102089.23;2264779;78;51120;-79
2022/10/06 11:36:26;;;;;;;;;;;;;;;20.34;61.86;102099.33;2264873;78;50353;-78
2022/10/06 11:39:29;;;;;;;;;;;;;;;20.33;61.90;102103.02;2264894;78;50733;-78
2022/10/06 11:42:35;;;;;;;;;;;;;;;20.31;61.96;102109.05;2264721;78;51603;-78
2022/10/06 11:45:42;;;;;;;;;;;;;;;20.32;61.95;102109.38;2291510;76;49689;-78
2022/10/06 11:48:43;;;;;;;;;;;;;;;20.33;61.86;102111.92;2345951;75;51558;-77
2022/10/06 11:51:45;;;;;;;;;;;;;;;20.32;61.92;102107.56;2347756;75;51515;-78
2022/10/06 11:54:51;;;;;;;;;;;;;;;20.32;61.95;102108.04;2369126;75;51540;-77
2022/10/06 11:58:06;;;;;;;;;;;;;;;20.32;61.91;102113.42;2336219;75;52849;-78
2022/10/06 12:01:07;;;;;;;;;;;;;;;20.32;61.88;102116.97;2336108;75;50382;-77
2022/10/06 12:04:10;;;;;;;;;;;;;;;20.35;61.83;102119.84;2371056;75;50695;-78
2022/10/06 12:07:13;;;;;;;;;;;;;;;20.34;61.79;102109.56;2376168;74;51620;-78
2022/10/06 12:10:28;;;;;;;;;;;;;;;20.33;61.86;102110.59;2353181;74;50174;-78
2022/10/06 12:13:31;;;;;;;;;;;;;;;20.33;61.83;102108.41;2383833;74;52186;-79
2022/10/06 12:16:35;;;;;;;;;;;;;;;20.32;61.87;102114.77;2384415;74;50721;-79
2022/10/06 12:19:54;;;;;;;;;;;;;;;20.33;61.86;102111.09;2345043;74;51665;-79
2022/10/06 12:23:10;;;;;;;;;;;;;;;20.36;61.79;102114.80;2303796;75;50076;-79
2022/10/06 12:26:16;;;;;;;;;;;;;;;20.36;61.77;102121.02;2335697;76;50764;-79
2022/10/06 12:29:36;;;;;;;;;;;;;;;20.37;61.68;102124.06;2335408;75;50772;-79
2022/10/06 12:32:57;;;;;;;;;;;;;;;20.37;61.71;102115.13;2335746;76;50625;-79
2022/10/06 12:36:02;;;;;;;;;;;;;;;20.38;61.69;102115.48;2303764;76;50861;-79
2022/10/06 12:39:04;;;;;;;;;;;;;;;20.40;61.63;102116.18;2335851;76;51568;-79
2022/10/06 12:42:06;;;;;;;;;;;;;;;20.39;61.66;102117.16;2330369;76;51479;-79
2022/10/06 12:45:10;;;;;;;;;;;;;;;20.41;61.62;102123.23;2289356;76;51969;-78
2022/10/06 12:48:16;;;;;;;;;;;;;;;20.39;61.63;102130.09;2330282;74;51592;-79
2022/10/06 12:51:25;;;;;;;;;;;;;;;20.41;61.60;102125.41;2331262;75;51539;-80
2022/10/06 12:54:34;;;;;;;;;;;;;;;20.40;61.67;102132.31;2334760;76;50712;-78
2022/10/06 12:57:46;;;;;;;;;;;;;;;20.37;61.75;102136.64;2333389;76;50696;-78
2022/10/06 13:00:48;;;;;;;;;;;;;;;20.38;61.74;102128.93;2295900;76;49696;-77
2022/10/06 13:03:49;;;;;;;;;;;;;;;20.38;61.79;102130.27;2334048;76;50562;-78
2022/10/06 13:06:51;;;;;;;;;;;;;;;20.38;61.75;102131.11;2337169;74;50313;-78
2022/10/06 13:09:54;;;;;;;;;;;;;;;20.39;61.76;102140.02;2364072;75;50305;-78
2022/10/06 13:12:56;;;;;;;;;;;;;;;20.38;61.78;102130.27;2334075;75;51068;-77
2022/10/06 13:15:59;;;;;;;;;;;;;;;20.40;61.74;102129.63;2333952;75;50267;-78
2022/10/06 13:19:01;;;;;;;;;;;;;;;20.39;61.75;102140.85;2362928;74;50743;-77
2022/10/06 13:22:02;;;;;;;;;;;;;;;20.41;61.72;102129.95;2350695;75;51522;-78
2022/10/06 13:25:04;;;;;;;;;;;;;;;20.41;61.68;102139.36;2311291;76;50943;-79
2022/10/06 13:28:07;;;;;;;;;;;;;;;20.41;61.76;102142.05;2344865;76;51486;-80
2022/10/06 13:31:13;;;;;;;;;;;;;;;20.43;61.69;102148.12;2342251;76;51478;-78
2022/10/06 13:34:16;;;;;;;;;;;;;;;20.41;61.73;102144.23;2344783;76;51570;-77
2022/10/06 13:37:17;;;;;;;;;;;;;;;20.42;61.71;102145.06;2312616;76;51279;-77
2022/10/06 13:40:30;;;;;;;;;;;;;;;20.44;61.68;102148.45;2344892;75;50227;-78
2022/10/06 13:43:32;;;;;;;;;;;;;;;20.42;61.69;102156.69;2313299;76;50245;-77
2022/10/06 13:46:35;;;;;;;;;;;;;;;20.43;61.67;102144.09;2344865;76;51367;-78
2022/10/06 13:49:41;;;;;;;;;;;;;;;20.44;61.67;102153.83;2324007;76;52423;-79
2022/10/06 13:52:45;;;;;;;;;;;;;;;20.44;61.62;102149.28;2377881;74;51458;-79
2022/10/06 13:55:48;;;;;;;;;;;;;;;20.45;61.63;102155.53;2385713;74;51521;-78
2022/10/06 13:58:50;;;;;;;;;;;;;;;20.45;61.62;102156.88;2385925;74;51536;-78
2022/10/06 14:01:51;;;;;;;;;;;;;;;20.45;61.55;102154.19;2351198;74;50943;-77
2022/10/06 14:05:10;;;;;;;;;;;;;;;20.45;61.60;102156.37;2385702;74;51489;-78
2022/10/06 14:08:13;;;;;;;;;;;;;;;20.45;61.60;102152.34;2288266;77;50750;-77
2022/10/06 14:11:16;;;;;;;;;;;;;;;20.47;61.62;102155.36;2352537;75;50745;-78
2022/10/06 14:14:18;;;;;;;;;;;;;;;20.47;61.62;102154.84;2331900;75;49657;-77
2022/10/06 14:17:27;;;;;;;;;;;;;;;20.46;61.68;102153.17;2357766;75;50252;-77
2022/10/06 14:20:40;;;;;;;;;;;;;;;20.46;61.75;102158.55;2340870;75;50364;-76
2022/10/06 14:23:42;;;;;;;;;;;;;;;20.47;61.74;102165.60;2321346;76;50258;-77
2022/10/06 14:26:44;;;;;;;;;;;;;;;20.48;61.76;102166.47;2309189;76;51129;-77
2022/10/06 14:29:46;;;;;;;;;;;;;;;20.49;61.77;102174.36;2321392;76;50780;-77
2022/10/06 14:32:48;;;;;;;;;;;;;;;20.48;61.79;102170.00;2309161;76;50028;-77
2022/10/06 14:35:50;;;;;;;;;;;;;;;20.49;61.79;102170.33;2321359;76;50250;-76
2022/10/06 14:38:52;;;;;;;;;;;;;;;20.51;61.75;102167.48;2309315;76;50944;-77
2022/10/06 14:41:53;;;;;;;;;;;;;;;20.51;61.77;102176.39;2309432;76;50737;-77
2022/10/06 14:44:55;;;;;;;;;;;;;;;20.50;61.81;102176.06;2321359;76;51479;-79
2022/10/06 14:47:58;;;;;;;;;;;;;;;20.52;61.78;102178.58;2309141;76;51466;-78
2022/10/06 14:51:02;;;;;;;;;;;;;;;20.53;61.75;102178.43;2275640;75;52646;-78
2022/10/06 14:54:04;;;;;;;;;;;;;;;20.53;61.78;102187.84;2332680;75;50236;-78
2022/10/06 14:57:07;;;;;;;;;;;;;;;20.53;61.79;102181.12;2357820;75;51516;-77
2022/10/06 15:00:09;;;;;;;;;;;;;;;20.54;61.78;102180.61;2357873;75;50637;-78
2022/10/06 15:03:11;;;;;;;;;;;;;;;20.53;61.75;102182.47;2337198;75;51359;-78
2022/10/06 15:09:32;;;;;;;;;;;;;;;20.51;61.76;102180.94;2364525;75;22471;-77
2022/10/06 15:12:33;;;;;;;;;;;;;;;20.49;61.75;102173.02;2366971;75;51456;-76
2022/10/06 15:15:36;;;;;;;;;;;;;;;20.48;61.75;102180.75;2319276;75;52581;-77
2022/10/06 15:18:39;;;;;;;;;;;;;;;20.48;61.71;102176.72;2334764;75;50244;-76
2022/10/06 15:21:43;;;;;;;;;;;;;;;20.48;61.69;102183.95;2304897;76;51503;-76
2022/10/06 15:24:49;;;;;;;;;;;;;;;20.47;61.71;102184.42;2304289;75;23205;-77
2022/10/06 15:31:07;;;;;;;;;;;;;;;20.45;61.68;102188.63;2271221;77;22511;-77
2022/10/06 15:34:11;;;;;;;;;;;;;;;20.43;61.69;102187.10;2301906;77;51435;-77
2022/10/06 15:37:12;;;;;;;;;;;;;;;20.42;61.67;102180.89;2302129;77;50278;-77
2022/10/06 15:40:14;;;;;;;;;;;;;;;20.42;61.71;102190.30;2266473;77;49504;-77
2022/10/06 15:43:53;;;;;;;;;;;;;;;20.41;61.67;102190.45;2302049;77;50354;-78
2022/10/06 15:46:19;;;;;;;;;;;;;;;20.39;61.69;102191.09;2297206;76;22434;-77
2022/10/06 15:49:21;;;;;;;;;;;;;;;20.39;61.67;102194.62;2301977;77;50274;-76
2022/10/06 15:52:23;;;;;;;;;;;;;;;20.40;61.59;102196.33;2308281;75;51038;-77
2022/10/06 15:55:25;;;;;;;;;;;;;;;20.41;61.52;102196.66;2309023;76;50007;-77
2022/10/06 15:58:26;;;;;;;;;;;;;;;20.42;61.48;102188.09;2341214;76;50324;-77